Weather at Dallas Love Field

Public forecast

Using degrees Fahrenheit for public forecast. Weather courtesy of forecast.io.

Current aviation weather report (METAR) for Dallas Love Field

Retrieved 2020/09/25 16:22 UTC (26 minutes ago):

KDAL 251622Z 18008KT 10SM SCT019 23/17 A3003

Aviation forecast (TAF) for Dallas Love Field

Retrieved 2020/09/25 12:27 UTC (4 hours ago):

TAF KDAL 251125Z 2512/2612 15006KT P6SM SCT010 TEMPO 2512/2515 3SM BR BKN010 FM251500 17008KT P6SM SCT020 FM251800 17009KT P6SM FEW250